createdAt,value
2022-11-14T00:00:44.509Z,1019.48
2022-11-14T00:01:44.620Z,1019.47
2022-11-14T00:02:44.559Z,1019.39
2022-11-14T00:03:44.477Z,1019.38
2022-11-14T00:04:44.482Z,1019.42
2022-11-14T00:05:44.454Z,1019.40
2022-11-14T00:06:44.492Z,1019.40
2022-11-14T00:07:44.453Z,1019.36
2022-11-14T00:08:44.446Z,1019.31
2022-11-14T00:09:44.417Z,1019.33
2022-11-14T00:10:44.404Z,1019.34
2022-11-14T00:11:44.416Z,1019.32
2022-11-14T00:12:44.386Z,1019.38
2022-11-14T00:13:44.390Z,1019.31
2022-11-14T00:14:44.355Z,1019.26
2022-11-14T00:15:44.354Z,1019.28
2022-11-14T00:16:44.336Z,1019.28
2022-11-14T00:17:44.431Z,1019.29
2022-11-14T00:18:44.334Z,1019.24
2022-11-14T00:19:44.312Z,1019.31
2022-11-14T00:20:44.288Z,1019.30
2022-11-14T00:21:44.298Z,1019.25
2022-11-14T00:22:44.281Z,1019.26
2022-11-14T00:23:44.262Z,1019.26
2022-11-14T00:24:44.279Z,1019.23
2022-11-14T00:25:44.248Z,1019.16
2022-11-14T00:26:44.229Z,1019.18
2022-11-14T00:27:44.212Z,1019.18
2022-11-14T00:28:44.199Z,1019.16
2022-11-14T00:29:44.201Z,1019.17
2022-11-14T00:30:44.201Z,1019.17
2022-11-14T00:31:44.173Z,1019.12
2022-11-14T00:32:44.165Z,1019.09
2022-11-14T00:33:44.285Z,1019.15
2022-11-14T00:34:44.144Z,1019.08
2022-11-14T00:35:44.147Z,1019.09
2022-11-14T00:36:44.120Z,1019.11
2022-11-14T00:37:44.112Z,1019.02
2022-11-14T00:38:44.098Z,1019.09
2022-11-14T00:39:44.092Z,1019.03
2022-11-14T00:40:44.104Z,1019.07
2022-11-14T00:41:44.093Z,1019.05
2022-11-14T00:42:44.054Z,1019.08
2022-11-14T00:43:44.043Z,1019.08
2022-11-14T00:44:44.045Z,1019.09
2022-11-14T00:45:44.040Z,1019.06
2022-11-14T00:46:44.038Z,1019.02
2022-11-14T00:47:44.035Z,1019.06
2022-11-14T00:48:43.989Z,1019.10
2022-11-14T00:49:44.100Z,1019.02
2022-11-14T00:50:43.965Z,1019.04
2022-11-14T00:51:43.978Z,1019.02
2022-11-14T00:52:43.970Z,1018.98
2022-11-14T00:53:43.975Z,1018.98
2022-11-14T00:54:43.928Z,1018.95
2022-11-14T00:55:43.915Z,1018.95
2022-11-14T00:56:43.905Z,1018.90
2022-11-14T00:57:43.928Z,1018.90
2022-11-14T00:58:43.901Z,1018.95
2022-11-14T00:59:43.892Z,1018.89
2022-11-14T01:00:43.939Z,1018.91
2022-11-14T01:01:43.856Z,1018.84
2022-11-14T01:02:43.838Z,1018.81
2022-11-14T01:03:43.836Z,1018.82
2022-11-14T01:04:43.830Z,1018.80
2022-11-14T01:05:43.931Z,1018.79
2022-11-14T01:06:43.794Z,1018.85
2022-11-14T01:07:43.811Z,1018.81
2022-11-14T01:08:43.881Z,1018.83
2022-11-14T01:09:43.783Z,1018.77
2022-11-14T01:10:43.757Z,1018.80
2022-11-14T01:11:43.751Z,1018.85
2022-11-14T01:12:43.751Z,1018.81
2022-11-14T01:13:43.736Z,1018.82
2022-11-14T01:14:43.767Z,1018.84
2022-11-14T01:15:43.702Z,1018.77
2022-11-14T01:16:43.695Z,1018.77
2022-11-14T01:17:43.687Z,1018.78
2022-11-14T01:18:43.683Z,1018.76
2022-11-14T01:19:43.674Z,1018.77
2022-11-14T01:20:43.667Z,1018.79
2022-11-14T01:21:43.746Z,1018.75
2022-11-14T01:22:43.633Z,1018.75
2022-11-14T01:23:43.628Z,1018.70
2022-11-14T01:24:43.615Z,1018.66
2022-11-14T01:25:43.622Z,1018.69
2022-11-14T01:26:43.592Z,1018.72
2022-11-14T01:27:43.571Z,1018.63
2022-11-14T01:28:43.601Z,1018.73
2022-11-14T01:29:43.554Z,1018.71
2022-11-14T01:30:43.561Z,1018.63
2022-11-14T01:31:43.543Z,1018.65
2022-11-14T01:32:43.528Z,1018.62
2022-11-14T01:33:43.527Z,1018.61
2022-11-14T01:34:43.497Z,1018.61
2022-11-14T01:35:43.540Z,1018.60
2022-11-14T01:36:43.485Z,1018.58
2022-11-14T01:37:43.574Z,1018.59
2022-11-14T01:38:43.487Z,1018.53
2022-11-14T01:39:43.457Z,1018.61
2022-11-14T01:40:43.433Z,1018.55
2022-11-14T01:41:43.447Z,1018.55
2022-11-14T01:42:43.420Z,1018.56
2022-11-14T01:43:43.409Z,1018.56
2022-11-14T01:44:43.410Z,1018.52
2022-11-14T01:45:43.404Z,1018.53
2022-11-14T01:46:43.398Z,1018.48
2022-11-14T01:47:43.419Z,1018.45
2022-11-14T01:48:43.359Z,1018.47
2022-11-14T01:49:43.361Z,1018.37
2022-11-14T01:50:43.336Z,1018.45
2022-11-14T01:51:43.327Z,1018.45
2022-11-14T01:52:43.336Z,1018.44
2022-11-14T01:53:43.415Z,1018.46
2022-11-14T01:54:43.307Z,1018.47
2022-11-14T01:55:43.288Z,1018.45
2022-11-14T01:56:43.311Z,1018.39
2022-11-14T01:57:43.278Z,1018.39
2022-11-14T01:58:43.262Z,1018.39
2022-11-14T01:59:43.254Z,1018.38
2022-11-14T02:00:43.223Z,1018.37
2022-11-14T02:01:43.235Z,1018.36
2022-11-14T02:02:43.212Z,1018.36
2022-11-14T02:03:43.209Z,1018.30
2022-11-14T02:04:43.221Z,1018.33
2022-11-14T02:05:43.175Z,1018.24
2022-11-14T02:06:43.172Z,1018.30
2022-11-14T02:07:43.168Z,1018.26
2022-11-14T02:08:43.162Z,1018.25
2022-11-14T02:09:43.248Z,1018.27
2022-11-14T02:10:43.132Z,1018.24
2022-11-14T02:11:43.122Z,1018.19
2022-11-14T02:12:43.128Z,1018.18
2022-11-14T02:13:43.109Z,1018.19
2022-11-14T02:14:43.092Z,1018.12
2022-11-14T02:15:43.082Z,1018.14
2022-11-14T02:16:55.500Z,1018.12
2022-11-14T02:17:44.075Z,1018.11
2022-11-14T02:18:43.054Z,1018.11
2022-11-14T02:19:43.030Z,1018.08
2022-11-14T02:20:43.015Z,1018.09
2022-11-14T02:21:43.030Z,1018.10
2022-11-14T02:22:43.049Z,1018.08
2022-11-14T02:23:42.990Z,1018.10
2022-11-14T02:24:43.007Z,1017.97
2022-11-14T02:25:43.092Z,1017.90
2022-11-14T02:26:43.005Z,1017.94
2022-11-14T02:27:42.946Z,1017.99
2022-11-14T02:28:42.944Z,1017.97
2022-11-14T02:29:42.931Z,1017.98
2022-11-14T02:30:42.915Z,1018.04
2022-11-14T02:31:42.957Z,1017.97
2022-11-14T02:33:10.689Z,1018.00
2022-11-14T02:33:43.890Z,1017.96
2022-11-14T02:34:42.881Z,1018.01
2022-11-14T02:35:42.866Z,1017.88
2022-11-14T02:36:42.863Z,1017.95
2022-11-14T02:37:42.850Z,1017.95
2022-11-14T02:38:42.842Z,1017.90
2022-11-14T02:39:42.826Z,1017.90
2022-11-14T02:40:42.821Z,1017.90
2022-11-14T02:41:42.904Z,1017.84
2022-11-14T02:42:42.790Z,1017.88
2022-11-14T02:43:42.798Z,1017.89
2022-11-14T02:44:42.775Z,1017.85
2022-11-14T02:45:42.749Z,1017.85
2022-11-14T02:46:42.765Z,1017.88
2022-11-14T02:47:42.739Z,1017.89
2022-11-14T02:48:42.742Z,1017.87
2022-11-14T02:49:42.712Z,1017.86
2022-11-14T02:50:42.744Z,1017.88
2022-11-14T02:51:42.723Z,1017.86
2022-11-14T02:52:42.684Z,1017.80
2022-11-14T02:53:42.682Z,1017.77
2022-11-14T02:54:42.671Z,1017.84
2022-11-14T02:55:42.661Z,1017.82
2022-11-14T02:56:42.658Z,1017.82
2022-11-14T02:57:42.763Z,1017.77
2022-11-14T02:58:42.625Z,1017.80
2022-11-14T02:59:42.647Z,1017.71
2022-11-14T03:01:05.835Z,1017.76
2022-11-14T03:01:43.614Z,1017.69
2022-11-14T03:02:42.610Z,1017.67
2022-11-14T03:03:42.598Z,1017.76
2022-11-14T03:04:42.555Z,1017.64
2022-11-14T03:05:51.348Z,1017.67
2022-11-14T03:06:42.596Z,1017.69
2022-11-14T03:07:42.535Z,1017.72
2022-11-14T03:08:42.530Z,1017.64
2022-11-14T03:09:42.525Z,1017.64
2022-11-14T03:10:42.492Z,1017.65
2022-11-14T03:11:42.515Z,1017.66
2022-11-14T03:12:42.504Z,1017.62
2022-11-14T03:13:42.582Z,1017.61
2022-11-14T03:14:42.469Z,1017.60
2022-11-14T03:15:42.469Z,1017.60
2022-11-14T03:16:42.429Z,1017.61
2022-11-14T03:17:42.421Z,1017.64
2022-11-14T03:18:42.449Z,1017.60
2022-11-14T03:19:42.406Z,1017.58
2022-11-14T03:20:42.415Z,1017.54
2022-11-14T03:21:42.400Z,1017.54
2022-11-14T03:22:42.374Z,1017.53
2022-11-14T03:23:42.375Z,1017.52
2022-11-14T03:24:42.345Z,1017.54
2022-11-14T03:25:42.337Z,1017.48
2022-11-14T03:26:42.356Z,1017.54
2022-11-14T03:27:42.315Z,1017.49
2022-11-14T03:28:42.318Z,1017.49
2022-11-14T03:29:42.417Z,1017.46
2022-11-14T03:30:42.297Z,1017.50
2022-11-14T03:31:42.286Z,1017.40
2022-11-14T03:32:42.271Z,1017.46
2022-11-14T03:33:42.260Z,1017.40
2022-11-14T03:34:42.263Z,1017.32
2022-11-14T03:35:42.256Z,1017.40
2022-11-14T03:36:42.231Z,1017.48
2022-11-14T03:37:42.219Z,1017.46
2022-11-14T03:38:42.218Z,1017.41
2022-11-14T03:39:42.234Z,1017.38
2022-11-14T03:40:42.220Z,1017.37
2022-11-14T03:41:42.173Z,1017.38
2022-11-14T03:42:42.164Z,1017.32
2022-11-14T03:43:42.166Z,1017.36
2022-11-14T03:44:42.154Z,1017.27
2022-11-14T03:45:42.252Z,1017.26
2022-11-14T03:46:42.123Z,1017.26
2022-11-14T03:47:42.119Z,1017.31
2022-11-14T03:48:42.112Z,1017.27
2022-11-14T03:49:42.093Z,1017.27
2022-11-14T03:50:42.103Z,1017.26
2022-11-14T03:51:42.087Z,1017.21
2022-11-14T03:52:42.107Z,1017.20
2022-11-14T03:53:42.053Z,1017.15
2022-11-14T03:54:42.053Z,1017.17
2022-11-14T03:55:42.070Z,1017.17
2022-11-14T03:56:42.043Z,1017.12
2022-11-14T03:57:42.024Z,1017.11
2022-11-14T03:58:42.003Z,1017.13
2022-11-14T03:59:41.991Z,1017.10
2022-11-14T04:00:42.061Z,1017.15
2022-11-14T04:01:42.101Z,1017.10
2022-11-14T04:02:41.953Z,1017.11
2022-11-14T04:03:41.941Z,1017.15
2022-11-14T04:04:41.993Z,1017.11
2022-11-14T04:05:41.945Z,1017.09
2022-11-14T04:06:41.916Z,1017.04
2022-11-14T04:07:41.918Z,1017.10
2022-11-14T04:08:41.901Z,1017.08
2022-11-14T04:09:41.897Z,1017.10
2022-11-14T04:10:41.883Z,1017.13
2022-11-14T04:11:41.883Z,1017.14
2022-11-14T04:12:41.862Z,1017.06
2022-11-14T04:13:41.863Z,1017.08
2022-11-14T04:14:41.841Z,1017.07
2022-11-14T04:15:41.821Z,1017.18
2022-11-14T04:16:41.808Z,1017.08
2022-11-14T04:17:41.906Z,1017.00
2022-11-14T04:18:41.802Z,1017.05
2022-11-14T04:19:41.804Z,1017.06
2022-11-14T04:20:41.782Z,1017.02
2022-11-14T04:21:41.760Z,1017.00
2022-11-14T04:22:41.777Z,1016.97
2022-11-14T04:23:41.743Z,1016.99
2022-11-14T04:24:41.762Z,1017.00
2022-11-14T04:25:41.758Z,1017.01
2022-11-14T04:26:41.716Z,1016.96
2022-11-14T04:27:41.688Z,1016.99
2022-11-14T04:28:41.691Z,1016.93
2022-11-14T04:29:41.680Z,1016.99
2022-11-14T04:30:41.698Z,1017.03
2022-11-14T04:31:41.677Z,1017.04
2022-11-14T04:32:41.659Z,1017.00
2022-11-14T04:33:41.744Z,1016.99
2022-11-14T04:34:41.635Z,1017.05
2022-11-14T04:35:41.638Z,1017.05
2022-11-14T04:36:41.602Z,1017.01
2022-11-14T04:37:41.590Z,1016.96
2022-11-14T04:38:41.588Z,1016.98
2022-11-14T04:39:41.570Z,1016.95
2022-11-14T04:40:41.576Z,1016.97
2022-11-14T04:41:41.586Z,1016.96
2022-11-14T04:42:41.541Z,1016.94
2022-11-14T04:43:42.961Z,1016.87
2022-11-14T04:44:41.706Z,1016.92
2022-11-14T04:45:41.508Z,1016.91
2022-11-14T04:46:41.494Z,1016.92
2022-11-14T04:47:41.501Z,1016.86
2022-11-14T04:48:41.496Z,1016.87
2022-11-14T04:49:41.572Z,1016.89
2022-11-14T04:50:41.456Z,1016.83
2022-11-14T04:51:41.444Z,1016.85
2022-11-14T04:52:41.453Z,1016.80
2022-11-14T04:53:41.477Z,1016.82
2022-11-14T04:54:41.429Z,1016.81
2022-11-14T04:55:41.404Z,1016.80
2022-11-14T04:56:41.390Z,1016.80
2022-11-14T04:57:41.382Z,1016.81
2022-11-14T04:58:41.392Z,1016.84
2022-11-14T04:59:41.365Z,1016.82
2022-11-14T05:00:41.341Z,1016.86
2022-11-14T05:01:41.394Z,1016.75
2022-11-14T05:02:41.333Z,1016.74
2022-11-14T05:03:41.323Z,1016.81
2022-11-14T05:04:41.334Z,1016.80
2022-11-14T05:05:42.312Z,1016.82
2022-11-14T05:06:41.281Z,1016.83
2022-11-14T05:07:41.284Z,1016.80
2022-11-14T05:08:41.253Z,1016.78
2022-11-14T05:09:41.264Z,1016.75
2022-11-14T05:10:41.245Z,1016.78
2022-11-14T05:11:41.244Z,1016.77
2022-11-14T05:12:41.226Z,1016.74
2022-11-14T05:13:41.229Z,1016.69
2022-11-14T05:14:41.201Z,1016.74
2022-11-14T05:15:41.206Z,1016.68
2022-11-14T05:16:41.190Z,1016.62
2022-11-14T05:17:41.175Z,1016.70
2022-11-14T05:18:46.732Z,1016.65
2022-11-14T05:19:42.143Z,1016.65
2022-11-14T05:20:41.156Z,1016.72
2022-11-14T05:21:41.146Z,1016.73
2022-11-14T05:22:41.114Z,1016.66
2022-11-14T05:23:41.132Z,1016.65
2022-11-14T05:24:41.100Z,1016.63
2022-11-14T05:25:41.083Z,1016.55
2022-11-14T05:26:41.125Z,1016.60
2022-11-14T05:27:41.056Z,1016.56
2022-11-14T05:28:41.068Z,1016.53
2022-11-14T05:29:41.048Z,1016.50
2022-11-14T05:30:41.027Z,1016.50
2022-11-14T05:31:41.047Z,1016.44
2022-11-14T05:32:41.017Z,1016.42
2022-11-14T05:33:41.000Z,1016.48
2022-11-14T05:34:40.985Z,1016.43
2022-11-14T05:35:40.994Z,1016.43
2022-11-14T05:36:40.980Z,1016.46
2022-11-14T05:37:41.000Z,1016.43
2022-11-14T05:38:40.943Z,1016.42
2022-11-14T05:39:40.945Z,1016.42
2022-11-14T05:40:40.924Z,1016.42
2022-11-14T05:41:40.910Z,1016.29
2022-11-14T05:42:40.901Z,1016.34
2022-11-14T05:43:40.967Z,1016.39
2022-11-14T05:44:40.885Z,1016.39
2022-11-14T05:45:40.882Z,1016.45
2022-11-14T05:46:40.859Z,1016.37
2022-11-14T05:47:40.857Z,1016.38
2022-11-14T05:48:40.866Z,1016.37
2022-11-14T05:49:40.833Z,1016.35
2022-11-14T05:50:40.833Z,1016.33
2022-11-14T05:51:40.812Z,1016.41
2022-11-14T05:52:40.798Z,1016.34
2022-11-14T05:53:40.819Z,1016.33
2022-11-14T05:54:40.773Z,1016.31
2022-11-14T05:55:40.767Z,1016.34
2022-11-14T05:56:40.768Z,1016.33
2022-11-14T05:57:40.756Z,1016.29
2022-11-14T05:58:40.731Z,1016.36
2022-11-14T05:59:40.758Z,1016.31
2022-11-14T06:00:48.065Z,1016.30
2022-11-14T06:01:41.744Z,1016.31
2022-11-14T06:02:40.686Z,1016.24
2022-11-14T06:03:40.699Z,1016.29
2022-11-14T06:04:40.727Z,1016.30
2022-11-14T06:05:40.684Z,1016.29
2022-11-14T06:06:40.661Z,1016.29
2022-11-14T06:07:40.725Z,1016.34
2022-11-14T06:08:40.653Z,1016.29
2022-11-14T06:09:40.621Z,1016.29
2022-11-14T06:10:40.602Z,1016.27
2022-11-14T06:11:40.594Z,1016.28
2022-11-14T06:12:40.583Z,1016.28
2022-11-14T06:13:40.568Z,1016.30
2022-11-14T06:14:40.580Z,1016.28
2022-11-14T06:15:40.559Z,1016.28
2022-11-14T06:16:40.557Z,1016.34
2022-11-14T06:17:40.525Z,1016.33
2022-11-14T06:18:40.535Z,1016.33
2022-11-14T06:19:40.515Z,1016.30
2022-11-14T06:20:40.503Z,1016.33
2022-11-14T06:21:40.510Z,1016.32
2022-11-14T06:22:40.493Z,1016.31
2022-11-14T06:23:40.471Z,1016.40
2022-11-14T06:24:40.478Z,1016.34
2022-11-14T06:25:40.466Z,1016.34
2022-11-14T06:26:40.442Z,1016.31
2022-11-14T06:27:40.436Z,1016.37
2022-11-14T06:28:40.409Z,1016.30
2022-11-14T06:29:40.408Z,1016.31
2022-11-14T06:30:40.403Z,1016.27
2022-11-14T06:31:40.388Z,1016.29
2022-11-14T06:32:40.386Z,1016.38
2022-11-14T06:33:40.380Z,1016.36
2022-11-14T06:34:40.352Z,1016.31
2022-11-14T06:35:40.344Z,1016.31
2022-11-14T06:36:40.336Z,1016.30
2022-11-14T06:37:40.356Z,1016.31
2022-11-14T06:38:40.317Z,1016.33
2022-11-14T06:39:40.307Z,1016.39
2022-11-14T06:40:40.284Z,1016.34
2022-11-14T06:41:40.301Z,1016.37
2022-11-14T06:42:40.279Z,1016.36
2022-11-14T06:43:40.269Z,1016.45
2022-11-14T06:44:40.248Z,1016.37
2022-11-14T06:45:40.240Z,1016.33
2022-11-14T06:46:40.233Z,1016.33
2022-11-14T06:47:40.206Z,1016.35
2022-11-14T06:48:40.208Z,1016.35
2022-11-14T06:49:40.906Z,1016.35
2022-11-14T06:50:40.178Z,1016.37
2022-11-14T06:51:40.167Z,1016.38
2022-11-14T06:52:40.164Z,1016.36
2022-11-14T06:53:40.163Z,1016.39
2022-11-14T06:54:40.134Z,1016.37
2022-11-14T06:55:40.134Z,1016.29
2022-11-14T06:56:40.109Z,1016.33
2022-11-14T06:57:40.119Z,1016.32
2022-11-14T06:58:40.105Z,1016.36
2022-11-14T06:59:40.087Z,1016.37
2022-11-14T07:00:40.137Z,1016.37
2022-11-14T07:01:40.058Z,1016.36
2022-11-14T07:02:40.107Z,1016.37
2022-11-14T07:03:40.037Z,1016.33
2022-11-14T07:04:40.044Z,1016.40
2022-11-14T07:05:40.023Z,1016.40
2022-11-14T07:06:40.021Z,1016.40
2022-11-14T07:07:40.005Z,1016.36
2022-11-14T07:08:39.979Z,1016.35
2022-11-14T07:09:39.974Z,1016.37
2022-11-14T07:10:39.974Z,1016.38
2022-11-14T07:11:39.961Z,1016.37
2022-11-14T07:12:39.943Z,1016.36
2022-11-14T07:13:39.940Z,1016.35
2022-11-14T07:14:39.910Z,1016.31
2022-11-14T07:15:39.929Z,1016.34
2022-11-14T07:16:39.929Z,1016.37
2022-11-14T07:17:39.883Z,1016.26
2022-11-14T07:18:39.906Z,1016.30
2022-11-14T07:19:39.878Z,1016.33
2022-11-14T07:20:39.858Z,1016.35
2022-11-14T07:21:39.851Z,1016.33
2022-11-14T07:22:39.853Z,1016.32
2022-11-14T07:23:39.825Z,1016.27
2022-11-14T07:24:39.816Z,1016.31
2022-11-14T07:25:39.810Z,1016.29
2022-11-14T07:26:39.797Z,1016.27
2022-11-14T07:27:39.790Z,1016.26
2022-11-14T07:28:39.779Z,1016.25
2022-11-14T07:29:39.769Z,1016.27
2022-11-14T07:30:39.749Z,1016.20
2022-11-14T07:31:39.747Z,1016.25
2022-11-14T07:32:39.734Z,1016.28
2022-11-14T07:33:39.720Z,1016.28
2022-11-14T07:34:39.743Z,1016.11
2022-11-14T07:35:39.698Z,1016.21
2022-11-14T07:36:39.684Z,1016.26
2022-11-14T07:37:39.671Z,1016.12
2022-11-14T07:38:39.666Z,1016.18
2022-11-14T07:39:39.664Z,1016.10
2022-11-14T07:40:39.641Z,1016.11
2022-11-14T07:41:39.638Z,1016.04
2022-11-14T07:42:39.641Z,1016.15
2022-11-14T07:43:39.610Z,1016.19
2022-11-14T07:44:39.613Z,1016.22
2022-11-14T07:45:39.604Z,1016.12
2022-11-14T07:46:39.578Z,1016.11
2022-11-14T07:47:39.586Z,1016.08
2022-11-14T07:48:39.573Z,1016.09
2022-11-14T07:49:39.545Z,1016.09
2022-11-14T07:50:39.616Z,1016.06
2022-11-14T07:51:39.536Z,1016.02
2022-11-14T07:52:39.519Z,1016.05
2022-11-14T07:53:39.519Z,1016.09
2022-11-14T07:54:39.495Z,1016.11
2022-11-14T07:55:39.611Z,1016.15
2022-11-14T07:56:39.494Z,1016.14
2022-11-14T07:57:42.860Z,1016.05
2022-11-14T07:58:40.474Z,1016.06
2022-11-14T07:59:39.445Z,1016.10
2022-11-14T08:00:39.498Z,1016.05
2022-11-14T08:01:39.464Z,1016.02
2022-11-14T08:02:39.409Z,1016.06
2022-11-14T08:03:45.141Z,1016.05
2022-11-14T08:04:40.383Z,1016.02
2022-11-14T08:05:39.386Z,1015.95
2022-11-14T08:06:39.383Z,1016.04
2022-11-14T08:07:39.441Z,1015.96
2022-11-14T08:08:39.369Z,1016.00
2022-11-14T08:09:39.333Z,1015.99
2022-11-14T08:10:39.341Z,1015.98
2022-11-14T08:11:39.339Z,1015.81
2022-11-14T08:12:39.336Z,1015.90
2022-11-14T08:13:39.364Z,1015.92
2022-11-14T08:14:39.330Z,1015.97
2022-11-14T08:15:39.322Z,1015.96
2022-11-14T08:16:39.271Z,1015.94
2022-11-14T08:17:39.316Z,1015.91
2022-11-14T08:18:39.288Z,1015.94
2022-11-14T08:19:39.243Z,1015.93
2022-11-14T08:20:39.250Z,1015.96
2022-11-14T08:21:39.214Z,1015.95
2022-11-14T08:22:39.201Z,1015.87
2022-11-14T08:23:39.210Z,1015.95
2022-11-14T08:24:39.190Z,1015.98
2022-11-14T08:25:39.175Z,1015.91
2022-11-14T08:26:39.162Z,1016.05
2022-11-14T08:27:39.159Z,1015.94
2022-11-14T08:28:39.186Z,1015.95
2022-11-14T08:29:39.208Z,1016.00
2022-11-14T08:30:39.114Z,1015.91
2022-11-14T08:31:39.107Z,1016.04
2022-11-14T08:32:39.105Z,1015.97
2022-11-14T08:33:39.119Z,1015.98
2022-11-14T08:34:39.083Z,1015.91
2022-11-14T08:35:39.080Z,1015.89
2022-11-14T08:36:39.064Z,1015.90
2022-11-14T08:37:39.058Z,1015.86
2022-11-14T08:38:39.050Z,1015.87
2022-11-14T08:39:39.073Z,1015.82
2022-11-14T08:40:39.011Z,1015.83
2022-11-14T08:41:39.000Z,1015.87
2022-11-14T08:42:38.999Z,1015.84
2022-11-14T08:43:38.987Z,1015.83
2022-11-14T08:44:38.966Z,1015.82
2022-11-14T08:45:38.991Z,1015.76
2022-11-14T08:46:38.993Z,1015.80
2022-11-14T08:47:38.940Z,1015.80
2022-11-14T08:48:38.938Z,1015.76
2022-11-14T08:49:38.947Z,1015.83
2022-11-14T08:50:38.942Z,1015.74
2022-11-14T08:51:38.899Z,1015.77
2022-11-14T08:52:38.887Z,1015.83
2022-11-14T08:53:38.884Z,1015.74
2022-11-14T08:54:38.874Z,1015.76
2022-11-14T08:55:38.853Z,1015.69
2022-11-14T08:56:38.868Z,1015.72
2022-11-14T08:57:38.873Z,1015.70
2022-11-14T08:58:38.834Z,1015.77
2022-11-14T08:59:38.815Z,1015.73
2022-11-14T09:00:38.839Z,1015.77
2022-11-14T09:01:38.795Z,1015.77
2022-11-14T09:02:38.799Z,1015.83
2022-11-14T09:03:38.946Z,1015.80
2022-11-14T09:04:38.771Z,1015.84
2022-11-14T09:05:38.762Z,1015.76
2022-11-14T09:06:38.783Z,1015.83
2022-11-14T09:07:38.741Z,1015.78
2022-11-14T09:08:38.726Z,1015.81
2022-11-14T09:09:38.707Z,1015.81
2022-11-14T09:10:38.703Z,1015.78
2022-11-14T09:11:38.688Z,1015.78
2022-11-14T09:12:38.688Z,1015.89
2022-11-14T09:13:38.661Z,1015.76
2022-11-14T09:14:38.673Z,1015.78
2022-11-14T09:15:38.686Z,1015.69
2022-11-14T09:16:38.679Z,1015.73
2022-11-14T09:17:38.633Z,1015.76
2022-11-14T09:18:38.616Z,1015.71
2022-11-14T09:19:38.603Z,1015.73
2022-11-14T09:20:40.376Z,1015.72
2022-11-14T09:21:38.609Z,1015.74
2022-11-14T09:22:38.594Z,1015.63
2022-11-14T09:23:38.593Z,1015.67
2022-11-14T09:24:38.590Z,1015.63
2022-11-14T09:25:38.589Z,1015.71
2022-11-14T09:26:38.560Z,1015.76
2022-11-14T09:27:38.521Z,1015.84
2022-11-14T09:28:38.511Z,1015.74
2022-11-14T09:29:38.510Z,1015.74
2022-11-14T09:30:38.483Z,1015.77
2022-11-14T09:31:38.500Z,1015.74
2022-11-14T09:32:38.478Z,1015.77
2022-11-14T09:33:38.467Z,1015.76
2022-11-14T09:34:38.446Z,1015.86
2022-11-14T09:35:38.447Z,1015.84
2022-11-14T09:36:38.431Z,1015.85
2022-11-14T09:37:38.425Z,1015.82
2022-11-14T09:38:39.059Z,1015.84
2022-11-14T09:39:38.383Z,1015.86
2022-11-14T09:40:38.401Z,1015.85
2022-11-14T09:41:38.376Z,1015.84
2022-11-14T09:42:38.364Z,1015.85
2022-11-14T09:43:38.351Z,1015.83
2022-11-14T09:44:38.355Z,1015.89
2022-11-14T09:45:38.344Z,1015.80
2022-11-14T09:46:38.340Z,1015.81
2022-11-14T09:47:38.317Z,1015.73
2022-11-14T09:48:38.311Z,1015.68
2022-11-14T09:49:38.303Z,1015.75
2022-11-14T09:50:38.296Z,1015.67
2022-11-14T09:51:38.271Z,1015.68
2022-11-14T09:52:38.282Z,1015.67
2022-11-14T09:53:38.264Z,1015.69
2022-11-14T09:54:38.237Z,1015.65
2022-11-14T09:55:38.232Z,1015.66
2022-11-14T09:56:38.211Z,1015.63
2022-11-14T09:57:38.221Z,1015.62
2022-11-14T09:58:38.201Z,1015.60
2022-11-14T09:59:38.198Z,1015.62
2022-11-14T10:00:38.192Z,1015.55
2022-11-14T10:01:38.243Z,1015.51
2022-11-14T10:02:38.140Z,1015.57
2022-11-14T10:03:38.147Z,1015.55
2022-11-14T10:04:38.141Z,1015.48
2022-11-14T10:05:38.120Z,1015.48
2022-11-14T10:06:38.147Z,1015.47
2022-11-14T10:07:38.169Z,1015.44
2022-11-14T10:08:38.105Z,1015.46
2022-11-14T10:09:38.087Z,1015.39
2022-11-14T10:10:39.020Z,1015.41
2022-11-14T10:11:38.053Z,1015.42
2022-11-14T10:12:38.051Z,1015.41
2022-11-14T10:13:38.046Z,1015.45
2022-11-14T10:14:38.021Z,1015.41
2022-11-14T10:15:38.022Z,1015.38
2022-11-14T10:16:38.008Z,1015.35
2022-11-14T10:17:38.016Z,1015.43
2022-11-14T10:18:38.002Z,1015.33
2022-11-14T10:19:42.547Z,1015.29
2022-11-14T10:20:37.964Z,1015.32
2022-11-14T10:21:37.956Z,1015.28
2022-11-14T10:22:37.969Z,1015.29
2022-11-14T10:23:37.924Z,1015.23
2022-11-14T10:24:37.938Z,1015.27
2022-11-14T10:25:42.638Z,1015.20
2022-11-14T10:26:38.898Z,1015.16
2022-11-14T10:27:37.894Z,1015.13
2022-11-14T10:28:37.914Z,1015.20
2022-11-14T10:29:37.876Z,1015.16
2022-11-14T10:30:37.877Z,1015.13
2022-11-14T10:31:37.838Z,1015.06
2022-11-14T10:32:37.832Z,1014.99
2022-11-14T10:33:37.850Z,1014.97
2022-11-14T10:34:37.823Z,1015.03
2022-11-14T10:35:37.808Z,1015.00
2022-11-14T10:36:37.831Z,1015.00
2022-11-14T10:37:37.780Z,1014.93
2022-11-14T10:38:37.791Z,1014.90
2022-11-14T10:39:37.770Z,1014.91
2022-11-14T10:40:37.751Z,1014.87
2022-11-14T10:42:07.349Z,1014.88
2022-11-14T10:42:38.726Z,1014.96
2022-11-14T10:43:37.726Z,1014.94
2022-11-14T10:44:37.793Z,1015.02
2022-11-14T10:45:37.710Z,1014.99
2022-11-14T10:46:37.687Z,1015.07
2022-11-14T10:47:37.679Z,1015.03
2022-11-14T10:48:37.675Z,1015.04
2022-11-14T10:49:37.654Z,1015.04
2022-11-14T10:50:37.653Z,1014.96
2022-11-14T10:51:37.659Z,1014.87
2022-11-14T10:52:37.623Z,1014.97
2022-11-14T10:53:37.629Z,1014.96
2022-11-14T10:54:37.602Z,1014.96
2022-11-14T10:56:02.358Z,1014.98
2022-11-14T10:56:38.618Z,1014.94
2022-11-14T10:57:37.589Z,1014.97
2022-11-14T10:58:47.818Z,1014.86
2022-11-14T10:59:38.545Z,1014.88
2022-11-14T11:00:37.710Z,1014.86
2022-11-14T11:01:37.646Z,1014.81
2022-11-14T11:02:37.539Z,1014.87
2022-11-14T11:03:37.571Z,1014.78
2022-11-14T11:04:37.494Z,1014.85
2022-11-14T11:05:37.521Z,1014.84
2022-11-14T11:06:37.543Z,1014.85
2022-11-14T11:07:37.551Z,1014.81
2022-11-14T11:08:43.220Z,1014.75
2022-11-14T11:09:44.848Z,1014.76
2022-11-14T11:10:38.428Z,1014.72
2022-11-14T11:11:37.447Z,1014.70
2022-11-14T11:12:37.499Z,1014.71
2022-11-14T11:13:37.424Z,1014.69
2022-11-14T11:14:37.400Z,1014.72
2022-11-14T11:15:37.393Z,1014.72
2022-11-14T11:16:37.414Z,1014.75
2022-11-14T11:17:43.019Z,1014.76
2022-11-14T11:18:38.344Z,1014.75
2022-11-14T11:19:37.339Z,1014.76
2022-11-14T11:20:37.368Z,1014.80
2022-11-14T11:21:37.433Z,1014.83
2022-11-14T11:22:37.352Z,1014.80
2022-11-14T11:23:37.302Z,1014.87
2022-11-14T11:24:37.290Z,1014.78
2022-11-14T11:25:37.286Z,1014.77
2022-11-14T11:26:37.267Z,1014.80
2022-11-14T11:27:37.249Z,1014.77
2022-11-14T11:28:37.434Z,1014.74
2022-11-14T11:29:37.758Z,1014.73
2022-11-14T11:30:37.229Z,1014.74
2022-11-14T11:31:37.215Z,1014.82
2022-11-14T11:32:37.225Z,1014.77
2022-11-14T11:33:37.223Z,1014.76
2022-11-14T11:34:37.195Z,1014.66
2022-11-14T11:35:37.180Z,1014.65
2022-11-14T11:36:37.169Z,1014.62
2022-11-14T11:37:37.156Z,1014.53
2022-11-14T11:38:37.166Z,1014.53
2022-11-14T11:39:37.137Z,1014.55
2022-11-14T11:40:37.113Z,1014.50
2022-11-14T11:43:52.568Z,1014.45
2022-11-14T11:44:38.086Z,1014.44
2022-11-14T11:45:37.092Z,1014.45
2022-11-14T11:46:37.062Z,1014.48
2022-11-14T11:47:37.038Z,1014.43
2022-11-14T11:48:37.032Z,1014.42
2022-11-14T11:49:37.041Z,1014.44
2022-11-14T11:50:37.012Z,1014.36
2022-11-14T11:51:37.030Z,1014.39
2022-11-14T11:52:36.994Z,1014.41
2022-11-14T11:53:36.999Z,1014.34
2022-11-14T11:54:36.982Z,1014.34
2022-11-14T11:55:36.974Z,1014.36
2022-11-14T11:56:36.955Z,1014.35
2022-11-14T11:57:36.935Z,1014.35
2022-11-14T11:58:36.923Z,1014.39
2022-11-14T11:59:36.924Z,1014.36
2022-11-14T12:00:36.932Z,1014.43
2022-11-14T12:01:36.912Z,1014.42
2022-11-14T12:02:37.017Z,1014.39
2022-11-14T12:03:37.234Z,1014.44
2022-11-14T12:04:36.859Z,1014.39
2022-11-14T12:05:36.867Z,1014.41
2022-11-14T12:06:36.848Z,1014.39
2022-11-14T12:07:36.910Z,1014.44